Bookmark and Share
Track history (hours):
 

Tideekspress

Last reported at 2014-Apr-15 19:24 UTC. Time now 2014-Apr-16 10:40 UTC.
Position N 62°28' E 006°09'.

Length 33 m; draft 2 m.

Type: High speed craft. MMSI: 258416000.

NotesDate/timePositionNaut miles runAvg speedWind from/ knotsBaromVisibWave heightAir tempDewpointWater temp
2014-Apr-15 19:24N 62°28' E 006°09'0 0.0
2014-Apr-15 18:30N 62°28' E 006°09'0 0.0
2014-Apr-15 05:32N 62°28' E 006°09'0 0.0
2014-Apr-15 02:34N 62°28' E 006°09'0 0.0
2014-Apr-15 01:31N 62°28' E 006°09'0 0.0
2014-Apr-14 19:33N 62°28' E 006°09'0 0.0
2014-Apr-14 18:32N 62°28' E 006°09'0 0.0
2014-Apr-14 14:33N 62°28' E 006°09'0 0.0
2014-Apr-14 13:33N 62°28' E 006°09'  
2014-Apr-12 07:24N 62°28' E 006°09'1 0.1
2014-Apr-11 21:33N 62°30' E 006°08'3 2.4
2014-Apr-11 20:16N 62°27' E 006°04'3 3.8
2014-Apr-11 19:32N 62°28' E 006°09'1 0.7
2014-Apr-11 17:33N 62°30' E 006°08'1 1.3
2014-Apr-11 16:27N 62°28' E 006°09'0 0.0
2014-Apr-11 15:30N 62°28' E 006°09'0 0.2
2014-Apr-11 14:33N 62°29' E 006°09'0 0.1
2014-Apr-11 13:33N 62°29' E 006°09'4 0.5
2014-Apr-11 06:15N 62°26' E 006°03'4 2.3
2014-Apr-11 04:33N 62°28' E 006°09'3 2.6
2014-Apr-11 03:25N 62°27' E 006°03'3 0.4
2014-Apr-10 21:33N 62°29' E 006°07'3 2.2
2014-Apr-10 20:15N 62°27' E 006°03'3 4.5
2014-Apr-10 19:33N 62°28' E 006°09'0 0.1
2014-Apr-10 18:33N 62°28' E 006°09'1 1.2
2014-Apr-10 17:34N 62°29' E 006°07'1 1.1
2014-Apr-10 16:28N 62°28' E 006°09'0 0.5
2014-Apr-10 15:34N 62°29' E 006°09'0 0.4
2014-Apr-10 14:33N 62°28' E 006°09'4 0.5
2014-Apr-10 06:16N 62°26' E 006°03'0 0.1
2014-Apr-10 05:05N 62°26' E 006°03'4 7.2
2014-Apr-10 04:33N 62°28' E 006°09'4 3.8
2014-Apr-10 03:30N 62°26' E 006°02'4 0.6
2014-Apr-09 21:33N 62°29' E 006°06'3 2.7
2014-Apr-09 20:19N 62°26' E 006°03'4 5.0
2014-Apr-09 19:33N 62°28' E 006°09'1 0.7
2014-Apr-09 17:33N 62°30' E 006°08'1 1.3
2014-Apr-09 16:33N 62°28' E 006°09'0 0.0
2014-Apr-09 15:33N 62°28' E 006°09'0 0.3
2014-Apr-09 14:33N 62°29' E 006°09'3 0.3
2014-Apr-09 06:13N 62°27' E 006°03'1 1.2
2014-Apr-09 05:06N 62°26' E 006°03'4 7.4
2014-Apr-09 04:33N 62°28' E 006°09'3 2.7
2014-Apr-09 03:26N 62°27' E 006°03'3 0.5
2014-Apr-08 21:33N 62°29' E 006°08'4 3.4
2014-Apr-08 20:20N 62°26' E 006°03'4 4.7
2014-Apr-08 19:31N 62°29' E 006°09'0 0.1
2014-Apr-08 18:33N 62°28' E 006°09'1 1.4
2014-Apr-08 17:33N 62°30' E 006°08'1 1.2
2014-Apr-08 16:23N 62°28' E 006°09'0 0.0
2014-Apr-08 15:33N 62°28' E 006°09'1 0.6
2014-Apr-08 14:33N 62°29' E 006°09'0 0.5
2014-Apr-08 13:33N 62°29' E 006°09'4 0.5
2014-Apr-08 06:15N 62°26' E 006°03'4 2.3
2014-Apr-08 04:33N 62°28' E 006°09'3 2.4
2014-Apr-08 03:25N 62°27' E 006°04'3 0.5
2014-Apr-07 21:27N 62°29' E 006°08'1 0.9
2014-Apr-07 20:13N 62°29' E 006°06'1 1.9
2014-Apr-07 19:27N 62°28' E 006°09'1 0.7
2014-Apr-07 17:33N 62°29' E 006°07'1 0.4
2014-Apr-07 14:26N 62°29' E 006°09'0 0.0
2014-Apr-07 04:33N 62°28' E 006°09'2 1.8
2014-Apr-07 03:25N 62°28' E 006°05'1 0.2
2014-Apr-06 21:33N 62°29' E 006°07'2 1.9
2014-Apr-06 20:17N 62°27' E 006°03'0 0.1
2014-Apr-06 19:16N 62°27' E 006°03'0 0.1
2014-Apr-06 18:18N 62°27' E 006°03'3 3.7
2014-Apr-06 17:33N 62°29' E 006°09'0 0.1
2014-Apr-06 14:05N 62°28' E 006°09'4 5.0
2014-Apr-06 13:19N 62°26' E 006°03'4 4.1
2014-Apr-06 12:22N 62°28' E 006°09'1 1.5
2014-Apr-06 11:33N 62°29' E 006°07'  

Dump ship's entire track history

sailing weather and tide predictions

Tideekspress — LCBK — position and weather